Envar — 3ESE3 — position and weather

sailwx.info

Track history (hours):
 
Tides and Currents Weather Stations Pressure Air Temp Water Temp Dewpoint Dewpoint Depression Visibility Wind Speed Wind Dir Waves Ship Positions

Envar

Last reported at 2017-Nov-19 14:48 UTC. Time now 2017-Nov-22 21:55 UTC.
Position N 37°54' E 015°40'.

Length 99 m; draft 5.5 m.

Type: Cargo ship. MMSI: 370274000.

Date/timePositionNaut miles runAvg speedWind from/ knotsBaromVisibWave heightAir tempDewpointWater temp
2017-Nov-19 14:48N 37°54' E 015°40'2 7.8
2017-Nov-19 14:29N 37°56' E 015°37'4 7.7
2017-Nov-19 14:00N 37°59' E 015°35'3 7.0
2017-Nov-19 13:30N 38°02' E 015°34'4 7.7
2017-Nov-19 13:00N 38°06' E 015°34'4 9.1
2017-Nov-19 12:30N 38°10' E 015°35'4 8.6
2017-Nov-19 12:00N 38°15' E 015°37'4 7.6
2017-Nov-19 11:29N 38°17' E 015°41'3 6.8
2017-Nov-19 10:59N 38°20' E 015°38'4 8.3
2017-Nov-19 10:30N 38°21' E 015°33'4 8.4
2017-Nov-19 10:00N 38°21' E 015°28'4 8.1
2017-Nov-19 09:30N 38°21' E 015°23'4 8.3
2017-Nov-19 09:00N 38°20' E 015°18'4 8.5
2017-Nov-19 08:29N 38°19' E 015°12'4 8.4
2017-Nov-19 08:00N 38°18' E 015°07'4 8.0
2017-Nov-19 07:30N 38°17' E 015°02'4 7.7
2017-Nov-19 07:00N 38°17' E 014°57'5 7.8
2017-Nov-19 06:25N 38°16' E 014°52'33 7.8
2017-Nov-19 02:09N 38°17' E 014°09'2 7.9
2017-Nov-19 01:58N 38°17' E 014°07'5 8.0
2017-Nov-19 01:19N 38°17' E 014°01'3 8.1
2017-Nov-19 00:59N 38°17' E 013°57'4 8.3
2017-Nov-19 00:31N 38°17' E 013°52'4 8.2
2017-Nov-19 00:00N 38°17' E 013°47'4 7.9
2017-Nov-18 23:30N 38°17' E 013°42'4 7.9
2017-Nov-18 23:00N 38°17' E 013°37'4 8.1
2017-Nov-18 22:30N 38°17' E 013°32'4 8.1
2017-Nov-18 22:00N 38°17' E 013°27'4 7.9
2017-Nov-18 21:31N 38°17' E 013°22'4 7.8
2017-Nov-18 21:00N 38°17' E 013°17'4 7.7
2017-Nov-18 20:30N 38°17' E 013°12'4 7.5
2017-Nov-18 20:00N 38°16' E 013°07'4 7.4
2017-Nov-18 19:30N 38°16' E 013°02'4 7.6
2017-Nov-18 19:01N 38°16' E 012°58'4 7.6
2017-Nov-18 18:30N 38°16' E 012°53'  
Track history (hours):
 
Tides and Currents Weather Stations Pressure Air Temp Water Temp Dewpoint Dewpoint Depression Visibility Wind Speed Wind Dir Waves Ship Positions

Envar

Last reported at 2017-Nov-19 14:48 UTC. Time now 2017-Nov-22 21:55 UTC.
Position N 37°54' E 015°40'.

Length 99 m; draft 5.5 m.

Type: Cargo ship. MMSI: 370274000.

Date/timePositionNaut miles runAvg speedWind from/ knotsBaromVisibWave heightAir tempDewpointWater temp
2017-Nov-19 14:48N 37°54' E 015°40'2 7.8
2017-Nov-19 14:29N 37°56' E 015°37'4 7.7
2017-Nov-19 14:00N 37°59' E 015°35'3 7.0
2017-Nov-19 13:30N 38°02' E 015°34'4 7.7
2017-Nov-19 13:00N 38°06' E 015°34'4 9.1
2017-Nov-19 12:30N 38°10' E 015°35'4 8.6
2017-Nov-19 12:00N 38°15' E 015°37'4 7.6
2017-Nov-19 11:29N 38°17' E 015°41'3 6.8
2017-Nov-19 10:59N 38°20' E 015°38'4 8.3
2017-Nov-19 10:30N 38°21' E 015°33'4 8.4
2017-Nov-19 10:00N 38°21' E 015°28'4 8.1
2017-Nov-19 09:30N 38°21' E 015°23'4 8.3
2017-Nov-19 09:00N 38°20' E 015°18'4 8.5
2017-Nov-19 08:29N 38°19' E 015°12'4 8.4
2017-Nov-19 08:00N 38°18' E 015°07'4 8.0
2017-Nov-19 07:30N 38°17' E 015°02'4 7.7
2017-Nov-19 07:00N 38°17' E 014°57'5 7.8
2017-Nov-19 06:25N 38°16' E 014°52'33 7.8
2017-Nov-19 02:09N 38°17' E 014°09'2 7.9
2017-Nov-19 01:58N 38°17' E 014°07'5 8.0
2017-Nov-19 01:19N 38°17' E 014°01'3 8.1
2017-Nov-19 00:59N 38°17' E 013°57'4 8.3
2017-Nov-19 00:31N 38°17' E 013°52'4 8.2
2017-Nov-19 00:00N 38°17' E 013°47'4 7.9
2017-Nov-18 23:30N 38°17' E 013°42'4 7.9
2017-Nov-18 23:00N 38°17' E 013°37'4 8.1
2017-Nov-18 22:30N 38°17' E 013°32'4 8.1
2017-Nov-18 22:00N 38°17' E 013°27'4 7.9
2017-Nov-18 21:31N 38°17' E 013°22'4 7.8
2017-Nov-18 21:00N 38°17' E 013°17'4 7.7
2017-Nov-18 20:30N 38°17' E 013°12'4 7.5
2017-Nov-18 20:00N 38°16' E 013°07'4 7.4
2017-Nov-18 19:30N 38°16' E 013°02'4 7.6
2017-Nov-18 19:01N 38°16' E 012°58'4 7.6
2017-Nov-18 18:30N 38°16' E 012°53'  

Dump ship's entire track history